Time;durP1;ratioP1;P1;durP2;ratioP2;P2;SDS_P1;SDS_P2;PMS_P1;PMS_P2;Temp;Humidity;BMP_temperature;BMP_pressure;BME280_temperature;BME280_humidity;BME280_pressure;Samples;Min_cycle;Max_cycle;Signal;HPM_P1;HPM_P2
2023/12/22 00:00:05;;;;;;;1.90;1.27;;;;;;;4.46;100.00;93934.09;7395351;19;20377;-91
2023/12/22 00:02:33;;;;;;;1.97;1.00;;;;;;;4.06;100.00;93873.31;7395691;19;20913;-91
2023/12/22 00:05:00;;;;;;;4.40;1.47;;;;;;;4.20;100.00;93913.50;7396881;19;20388;-91
2023/12/22 00:07:28;;;;;;;2.60;1.60;;;;;;;4.70;100.00;93974.25;7397322;19;20400;-91
2023/12/22 00:09:56;;;;;;;1.63;1.10;;;;;;;4.42;100.00;93925.44;7396333;19;20396;-91
2023/12/22 00:12:23;;;;;;;1.20;1.03;;;;;;;4.60;100.00;93953.84;7396341;19;20428;-91
2023/12/22 00:14:50;;;;;;;1.73;1.43;;;;;;;4.37;100.00;93923.03;7396705;19;20400;-91
2023/12/22 00:17:18;;;;;;;1.73;1.30;;;;;;;4.27;100.00;93914.88;7397564;19;20395;-91
2023/12/22 00:19:45;;;;;;;8.30;1.40;;;;;;;4.02;100.00;93896.56;7395992;19;20519;-91
2023/12/22 00:22:13;;;;;;;9.03;1.53;;;;;;;4.94;100.00;94028.91;7394905;19;20433;-91
2023/12/22 00:24:41;;;;;;;4.87;1.60;;;;;;;4.39;100.00;93933.84;7400518;19;20389;-91
2023/12/22 00:27:09;;;;;;;3.70;1.73;;;;;;;3.34;100.00;93770.72;7404733;19;20380;-91
2023/12/22 00:29:37;;;;;;;2.50;2.20;;;;;;;4.25;100.00;93928.16;7404051;19;20893;-91
2023/12/22 00:32:04;;;;;;;4.10;1.77;;;;;;;4.67;100.00;93990.47;7402420;19;20408;-91
2023/12/22 00:34:32;;;;;;;3.73;1.83;;;;;;;4.83;100.00;94009.59;7403316;19;20372;-91
2023/12/22 00:37:00;;;;;;;1.10;1.00;;;;;;;3.86;100.00;93891.19;7403302;19;20376;-91
2023/12/22 00:39:27;;;;;;;4.80;2.47;;;;;;;4.77;100.00;94016.06;7402303;19;20877;-91
2023/12/22 00:41:55;;;;;;;7.23;1.87;;;;;;;4.88;100.00;94047.59;7401812;19;20420;-92
2023/12/22 00:44:27;;;;;;;2.73;1.00;;;;;;;3.93;100.00;93893.25;7403312;19;20380;-91
2023/12/22 00:46:56;;;;;;;4.10;1.60;;;;;;;4.53;100.00;94003.72;7403262;19;20365;-91
2023/12/22 00:49:23;;;;;;;2.10;1.30;;;;;;;4.05;100.00;93934.84;7403554;19;20385;-90
2023/12/22 00:51:51;;;;;;;5.30;2.03;;;;;;;4.42;100.00;93986.97;7402471;19;20495;-91
2023/12/22 00:54:18;;;;;;;13.47;2.77;;;;;;;4.79;100.00;94039.88;7403975;19;20401;-90
2023/12/22 00:56:46;;;;;;;6.17;2.10;;;;;;;4.51;100.00;94010.31;7403245;19;20385;-91
2023/12/22 00:59:13;;;;;;;9.50;4.00;;;;;;;5.31;100.00;94123.44;7402826;19;20866;-91
2023/12/22 01:01:40;;;;;;;2.90;2.60;;;;;;;3.95;100.00;93926.66;7402112;19;20487;-91
2023/12/22 01:04:08;;;;;;;11.50;2.30;;;;;;;4.65;100.00;94027.16;7402181;19;20384;-90
2023/12/22 01:06:38;;;;;;;6.27;1.37;;;;;;;3.98;100.00;93906.06;7403014;19;20393;-91
2023/12/22 01:09:07;;;;;;;7.97;2.33;;;;;;;4.25;100.00;93979.31;7402753;19;20377;-91
2023/12/22 01:11:34;;;;;;;5.57;1.70;;;;;;;4.61;100.00;94017.69;7401201;19;20412;-91
2023/12/22 01:14:02;;;;;;;8.03;2.60;;;;;;;4.60;100.00;94010.97;7402174;19;20862;-91
2023/12/22 01:16:29;;;;;;;5.70;1.80;;;;;;;4.59;100.00;94014.66;7402504;19;20361;-91
2023/12/22 01:18:57;;;;;;;6.53;2.97;;;;;;;4.13;100.00;93946.25;7402776;19;20381;-91
2023/12/22 01:21:24;;;;;;;7.77;2.03;;;;;;;5.25;100.00;94114.28;7401443;19;20464;-91
2023/12/22 01:23:52;;;;;;;4.33;1.93;;;;;;;4.24;100.00;93990.78;7401913;19;20383;-91
2023/12/22 01:26:19;;;;;;;7.33;1.93;;;;;;;4.12;100.00;93968.09;7402210;19;20941;-90
2023/12/22 01:28:46;;;;;;;3.93;2.20;;;;;;;4.23;100.00;93969.22;7402294;19;20384;-91
2023/12/22 01:31:14;;;;;;;7.70;2.40;;;;;;;3.85;100.00;93928.56;7401245;19;20416;-91
2023/12/22 01:33:42;;;;;;;7.97;2.93;;;;;;;4.99;100.00;94087.72;7402238;19;20367;-91
2023/12/22 01:36:10;;;;;;;8.60;2.17;;;;;;;4.75;100.00;94057.16;7399909;19;20849;-90
2023/12/22 01:38:37;;;;;;;5.53;1.90;;;;;;;4.90;100.00;94074.03;7401346;19;20401;-90
2023/12/22 01:41:04;;;;;;;8.07;2.33;;;;;;;3.81;100.00;93922.47;7399336;19;20416;-91
2023/12/22 01:43:32;;;;;;;3.77;2.10;;;;;;;4.57;100.00;94047.97;7401014;19;20368;-91
2023/12/22 01:46:01;;;;;;;9.63;2.40;;;;;;;4.36;100.00;94021.97;7402352;19;20849;-92
2023/12/22 01:48:37;;;;;;;8.00;2.30;;;;;;;4.12;100.00;93986.25;7401916;19;20384;-91
2023/12/22 01:51:07;;;;;;;6.30;2.03;;;;;;;4.21;100.00;94005.13;7400643;19;20361;-91
2023/12/22 01:53:35;;;;;;;7.53;2.67;;;;;;;4.19;100.00;93999.50;7400915;19;20357;-91
2023/12/22 01:56:06;;;;;;;3.80;2.43;;;;;;;5.06;100.00;94139.97;7401307;19;20369;-90
2023/12/22 01:58:37;;;;;;;4.10;1.80;;;;;;;4.43;100.00;94048.22;7400415;19;20383;-91
2023/12/22 02:01:16;;;;;;;9.70;2.50;;;;;;;4.31;100.00;94015.16;7398473;19;20384;-91
2023/12/22 02:03:44;;;;;;;10.53;2.33;;;;;;;4.09;100.00;93989.47;7400691;19;20360;-91
2023/12/22 02:06:12;;;;;;;17.17;3.17;;;;;;;4.14;100.00;93966.69;7400381;19;20397;-91
2023/12/22 02:08:41;;;;;;;4.73;2.70;;;;;;;4.33;100.00;93994.81;7400322;19;20384;-92
2023/12/22 02:11:08;;;;;;;5.80;2.63;;;;;;;4.13;100.00;93967.03;7400939;19;20396;-91
2023/12/22 02:13:36;;;;;;;9.70;2.53;;;;;;;5.23;100.00;94146.88;7401158;19;20367;-91
2023/12/22 02:16:20;;;;;;;3.27;2.33;;;;;;;4.34;100.00;94024.13;7400180;19;20858;-91
2023/12/22 02:18:53;;;;;;;8.80;2.40;;;;;;;4.65;100.00;94055.72;7400885;19;20448;-91
2023/12/22 02:21:21;;;;;;;5.30;1.90;;;;;;;4.18;100.00;93983.16;7397690;19;20897;-92
2023/12/22 02:23:48;;;;;;;3.00;1.60;;;;;;;4.31;100.00;94024.78;7400708;19;20389;-91
2023/12/22 02:26:33;;;;;;;9.23;1.67;;;;;;;4.58;100.00;94039.88;7400900;19;20389;-91
2023/12/22 02:29:02;;;;;;;4.33;2.17;;;;;;;4.08;100.00;93956.81;7400745;19;20455;-91
2023/12/22 02:31:44;;;;;;;7.50;2.60;;;;;;;5.24;100.00;94125.75;7399195;19;20396;-92
2023/12/22 02:34:19;;;;;;;7.50;2.40;;;;;;;4.74;100.00;94034.88;7401994;19;20373;-91
2023/12/22 02:36:49;;;;;;;8.53;2.07;;;;;;;4.35;100.00;93987.47;7400180;19;20380;-91
2023/12/22 02:39:18;;;;;;;4.50;1.30;;;;;;;3.76;100.00;93904.50;7401831;19;20365;-91
2023/12/22 02:41:46;;;;;;;4.60;1.77;;;;;;;4.51;100.00;93985.09;7398232;19;20400;-91
2023/12/22 02:44:14;;;;;;;9.47;2.87;;;;;;;4.68;100.00;94008.34;7399942;19;20373;-91
2023/12/22 02:46:50;;;;;;;3.90;1.50;;;;;;;4.86;100.00;94062.75;7399580;19;20433;-91
2023/12/22 02:49:18;;;;;;;7.30;3.50;;;;;;;5.00;100.00;94084.03;7399561;19;20380;-91
2023/12/22 02:51:46;;;;;;;4.10;1.67;;;;;;;4.37;100.00;93954.19;7398101;19;20405;-91
2023/12/22 02:54:13;;;;;;;4.03;2.00;;;;;;;4.60;100.00;94008.38;7398917;19;20858;-91
2023/12/22 02:56:42;;;;;;;5.83;2.97;;;;;;;4.51;100.00;94039.63;7399044;19;20373;-90
2023/12/22 02:59:10;;;;;;;3.50;1.53;;;;;;;4.34;100.00;93993.75;7399589;19;20389;-91
2023/12/22 03:01:37;;;;;;;8.10;1.80;;;;;;;3.74;100.00;93911.09;7398598;19;20401;-91
2023/12/22 03:04:05;;;;;;;9.47;2.73;;;;;;;3.70;100.00;93894.59;7398427;19;20413;-92
2023/12/22 03:06:32;;;;;;;1.30;1.20;;;;;;;4.69;100.00;94028.03;7398792;19;20377;-91
2023/12/22 03:09:00;;;;;;;2.50;1.60;;;;;;;4.85;100.00;94069.03;7400549;19;20432;-92
2023/12/22 03:11:27;;;;;;;5.70;1.73;;;;;;;4.48;100.00;94020.22;7397657;19;20401;-92
2023/12/22 03:13:54;;;;;;;3.80;1.43;;;;;;;5.29;100.00;94120.38;7398731;19;20667;-91
2023/12/22 03:16:22;;;;;;;5.73;2.13;;;;;;;3.86;100.00;93890.41;7398813;19;20380;-91
2023/12/22 03:18:50;;;;;;;1.90;1.30;;;;;;;5.30;100.00;94141.94;7399017;19;20380;-91
2023/12/22 03:21:19;;;;;;;4.43;1.50;;;;;;;4.87;100.00;94080.63;7396532;19;20383;-92
2023/12/22 03:23:46;;;;;;;1.40;1.30;;;;;;;4.52;100.00;94015.19;7397949;19;20376;-92
2023/12/22 03:26:14;;;;;;;4.80;1.90;;;;;;;4.13;100.00;93965.19;7398273;19;20373;-91
2023/12/22 03:28:41;;;;;;;7.30;1.40;;;;;;;4.20;100.00;93962.84;7398151;19;20357;-92
2023/12/22 03:31:09;;;;;;;4.63;1.00;;;;;;;4.50;100.00;94006.94;7398872;19;20381;-92
2023/12/22 03:33:36;;;;;;;2.80;1.60;;;;;;;5.12;100.00;94097.09;7399297;19;20361;-91
2023/12/22 03:36:04;;;;;;;2.73;1.10;;;;;;;4.06;100.00;93936.38;7398471;19;20392;-90
2023/12/22 03:38:31;;;;;;;8.90;2.10;;;;;;;5.13;100.00;94082.28;7398322;19;20376;-91
2023/12/22 03:43:31;;;;;;;2.60;1.33;;;;;;;4.68;100.00;94016.13;7398406;19;20389;-91
2023/12/22 03:45:59;;;;;;;5.50;1.20;;;;;;;4.71;100.00;94019.91;7397061;19;20451;-91
2023/12/22 03:48:26;;;;;;;3.80;2.20;;;;;;;4.96;100.00;94059.78;7398194;19;20377;-91
2023/12/22 03:50:54;;;;;;;2.90;1.30;;;;;;;4.79;100.00;94030.25;7397740;19;20380;-91
2023/12/22 03:53:21;;;;;;;3.20;1.73;;;;;;;4.45;100.00;94002.69;7397737;19;20365;-91
2023/12/22 03:55:49;;;;;;;2.90;1.53;;;;;;;4.62;100.00;94009.59;7397272;19;20413;-91
2023/12/22 03:58:16;;;;;;;1.50;1.20;;;;;;;4.71;100.00;94012.13;7396519;19;20384;-91
2023/12/22 04:00:44;;;;;;;2.20;1.60;;;;;;;4.43;100.00;93975.50;7396216;19;20377;-91
2023/12/22 04:03:11;;;;;;;2.13;1.40;;;;;;;4.55;100.00;93987.81;7395708;19;20709;-91
2023/12/22 04:05:39;;;;;;;1.53;1.13;;;;;;;4.95;100.00;94063.47;7397710;19;20390;-91
2023/12/22 04:08:06;;;;;;;1.80;1.37;;;;;;;4.99;100.00;94067.69;7397346;19;20467;-91
2023/12/22 04:10:34;;;;;;;5.27;1.47;;;;;;;4.40;100.00;93968.38;7397276;19;20392;-91
2023/12/22 04:13:02;;;;;;;2.40;1.40;;;;;;;4.37;100.00;93971.59;7395673;19;20437;-92
2023/12/22 04:15:29;;;;;;;5.40;2.07;;;;;;;4.73;100.00;94012.56;7397177;19;20386;-90
2023/12/22 04:17:57;;;;;;;2.50;1.27;;;;;;;4.65;100.00;94011.56;7398689;19;20383;-91
2023/12/22 04:20:24;;;;;;;2.23;1.20;;;;;;;4.80;100.00;94046.59;7395873;19;20377;-91
2023/12/22 04:22:52;;;;;;;1.63;1.00;;;;;;;5.16;100.00;94099.81;7394813;19;20416;-91
2023/12/22 04:25:21;;;;;;;2.03;1.10;;;;;;;4.09;100.00;93945.34;7396037;19;20371;-91
2023/12/22 04:27:49;;;;;;;1.73;1.10;;;;;;;3.64;100.00;93877.72;7396583;19;20377;-91
2023/12/22 04:30:17;;;;;;;2.00;1.20;;;;;;;4.21;100.00;93945.41;7405491;19;20403;-92
2023/12/22 04:32:44;;;;;;;1.40;1.03;;;;;;;4.53;100.00;93984.78;7418154;19;20405;-92
2023/12/22 04:35:12;;;;;;;2.80;1.70;;;;;;;5.31;100.00;94101.88;7426988;19;20377;-89
2023/12/22 04:37:39;;;;;;;3.33;1.07;;;;;;;3.58;100.00;93877.91;7426572;19;20389;-91
2023/12/22 04:40:07;;;;;;;4.03;1.60;;;;;;;4.21;100.00;93953.22;7426204;19;20400;-90
2023/12/22 04:42:35;;;;;;;5.37;2.60;;;;;;;4.64;100.00;94030.06;7424702;19;20411;-91
2023/12/22 04:45:02;;;;;;;6.00;1.43;;;;;;;4.39;100.00;94018.78;7419460;19;20869;-91
2023/12/22 04:47:30;;;;;;;3.63;1.97;;;;;;;5.04;100.00;94119.50;7401604;19;20854;-90
2023/12/22 04:49:57;;;;;;;1.93;1.20;;;;;;;4.81;100.00;94061.13;7399255;19;20380;-90
2023/12/22 04:52:25;;;;;;;4.17;1.57;;;;;;;4.86;100.00;94067.94;7396512;19;20481;-91
2023/12/22 04:54:53;;;;;;;1.53;1.27;;;;;;;4.46;100.00;94030.16;7413297;19;20357;-91
2023/12/22 04:57:22;;;;;;;6.97;1.93;;;;;;;4.46;100.00;94004.19;7411771;19;20401;-90
2023/12/22 04:59:49;;;;;;;9.00;1.97;;;;;;;4.86;100.00;94071.31;7410708;19;20385;-90
2023/12/22 05:02:17;;;;;;;1.80;1.03;;;;;;;3.81;100.00;93927.66;7410814;19;20482;-90
2023/12/22 05:04:44;;;;;;;2.57;1.23;;;;;;;4.18;100.00;93977.19;7395559;19;20373;-88
2023/12/22 05:07:12;;;;;;;1.63;1.33;;;;;;;4.60;100.00;94055.13;7395260;19;20869;-89
2023/12/22 05:09:42;;;;;;;4.20;1.07;;;;;;;4.77;100.00;94102.56;7395003;19;20395;-90
2023/12/22 05:12:09;;;;;;;3.27;2.03;;;;;;;4.96;100.00;94129.94;7399084;19;20421;-89
2023/12/22 05:14:37;;;;;;;2.10;1.30;;;;;;;4.81;100.00;94120.13;7403073;19;20380;-90
2023/12/22 05:17:04;;;;;;;1.20;1.10;;;;;;;4.19;100.00;94017.66;7402473;19;20377;-89
2023/12/22 05:19:31;;;;;;;7.80;1.57;;;;;;;3.70;100.00;93968.00;7402302;19;20373;-89
2023/12/22 05:21:59;;;;;;;2.67;1.30;;;;;;;4.35;100.00;94036.03;7399693;19;20459;-89
2023/12/22 05:24:27;;;;;;;4.67;2.40;;;;;;;4.56;100.00;94088.78;7403723;19;20357;-91
2023/12/22 05:26:55;;;;;;;4.77;1.37;;;;;;;5.20;100.00;94182.09;7402396;19;20864;-90
2023/12/22 05:29:22;;;;;;;3.90;1.57;;;;;;;4.39;100.00;94074.06;7402398;19;20381;-90
2023/12/22 05:31:50;;;;;;;3.53;1.37;;;;;;;4.61;100.00;94111.97;7400815;19;20404;-90
2023/12/22 05:34:17;;;;;;;5.53;2.07;;;;;;;4.41;100.00;94097.13;7403734;19;20457;-90
2023/12/22 05:36:45;;;;;;;4.30;1.60;;;;;;;4.06;100.00;94053.13;7401820;19;20397;-90
2023/12/22 05:39:13;;;;;;;3.37;1.33;;;;;;;3.89;100.00;94009.88;7401679;19;20385;-88
2023/12/22 05:41:40;;;;;;;4.50;1.27;;;;;;;4.01;100.00;94031.81;7399180;19;20413;-82
2023/12/22 05:44:08;;;;;;;1.73;1.20;;;;;;;3.56;100.00;93977.81;7401819;19;20516;-89
2023/12/22 05:46:37;;;;;;;4.40;1.87;;;;;;;4.92;100.00;94174.00;7402037;19;20385;-90
2023/12/22 05:49:05;;;;;;;1.20;1.10;;;;;;;3.62;100.00;93984.34;7401575;19;20418;-89
2023/12/22 05:51:39;;;;;;;4.73;1.87;;;;;;;3.99;100.00;94057.31;7403165;19;20389;-89
2023/12/22 05:54:08;;;;;;;2.83;1.43;;;;;;;4.55;100.00;94133.25;7402007;19;20376;-89
2023/12/22 05:56:35;;;;;;;6.67;1.80;;;;;;;4.14;100.00;94091.28;7403243;19;20361;-90
2023/12/22 05:59:03;;;;;;;2.90;1.80;;;;;;;3.91;100.00;94040.69;7402258;19;20380;-90
2023/12/22 06:01:30;;;;;;;1.27;1.00;;;;;;;3.59;100.00;93990.94;7400205;19;20445;-90
2023/12/22 06:03:58;;;;;;;2.37;2.00;;;;;;;4.33;100.00;94111.66;7400791;19;20385;-90
2023/12/22 06:06:27;;;;;;;2.83;1.10;;;;;;;4.32;100.00;94107.53;7400771;19;20397;-90
2023/12/22 06:08:54;;;;;;;1.73;1.63;;;;;;;3.91;100.00;94038.09;7400927;19;20460;-89
2023/12/22 06:11:22;;;;;;;2.20;1.30;;;;;;;4.29;100.00;94091.81;7399724;19;20405;-89
2023/12/22 06:13:50;;;;;;;4.43;1.40;;;;;;;3.59;100.00;93998.72;7400178;19;20377;-90
2023/12/22 06:16:20;;;;;;;2.10;1.07;;;;;;;4.26;100.00;94090.63;7402610;19;20365;-90
2023/12/22 06:18:48;;;;;;;3.03;1.20;;;;;;;4.64;100.00;94152.16;7399962;19;20372;-90
2023/12/22 06:21:15;;;;;;;1.30;1.07;;;;;;;4.15;100.00;94115.41;7398949;19;20429;-90
2023/12/22 06:23:43;;;;;;;1.40;0.90;;;;;;;4.01;100.00;94087.06;7399881;19;20693;-90
2023/12/22 06:26:11;;;;;;;4.00;2.50;;;;;;;3.96;100.00;94037.91;7401383;19;20401;-90
2023/12/22 06:28:39;;;;;;;1.47;1.37;;;;;;;3.09;100.00;93923.41;7401772;19;20456;-90
2023/12/22 06:31:18;;;;;;;1.13;1.00;;;;;;;4.60;100.00;94141.59;7399548;19;20413;-89
2023/12/22 06:33:47;;;;;;;2.03;1.00;;;;;;;4.29;100.00;94097.78;7400550;19;20374;-90
2023/12/22 06:36:23;;;;;;;1.93;1.33;;;;;;;4.33;100.00;94122.03;7400005;19;20397;-89
2023/12/22 06:38:54;;;;;;;1.43;1.00;;;;;;;3.92;100.00;94073.34;7399808;19;20372;-90
2023/12/22 06:41:29;;;;;;;1.87;1.10;;;;;;;4.12;100.00;94124.56;7399121;19;20906;-90
2023/12/22 06:44:01;;;;;;;1.60;1.50;;;;;;;3.88;100.00;94114.72;7401034;19;20384;-90
2023/12/22 06:46:30;;;;;;;2.87;1.50;;;;;;;4.51;100.00;94181.69;7401249;19;20490;-91
2023/12/22 06:48:58;;;;;;;0.90;0.90;;;;;;;4.08;100.00;94123.66;7400509;19;20386;-92
2023/12/22 06:51:31;;;;;;;1.60;1.50;;;;;;;4.37;100.00;94163.72;7400181;19;20432;-92
2023/12/22 06:54:02;;;;;;;1.33;0.90;;;;;;;4.41;100.00;94157.59;7400968;19;20458;-92
2023/12/22 06:56:31;;;;;;;1.20;1.03;;;;;;;3.81;100.00;94083.28;7400229;19;20372;-91
2023/12/22 06:58:59;;;;;;;3.67;1.90;;;;;;;3.68;100.00;94065.31;7399437;19;20393;-92
2023/12/22 07:01:32;;;;;;;0.90;0.90;;;;;;;3.86;100.00;94066.81;7399054;19;20408;-93
2023/12/22 07:04:01;;;;;;;2.40;1.07;;;;;;;4.43;100.00;94160.63;7401173;19;20395;-92
2023/12/22 07:06:31;;;;;;;1.03;0.90;;;;;;;4.67;100.00;94208.66;7399495;19;20872;-92
2023/12/22 07:09:13;;;;;;;1.10;1.00;;;;;;;4.93;100.00;94222.31;7400639;19;20409;-91
2023/12/22 07:11:45;;;;;;;4.57;1.97;;;;;;;4.17;100.00;94131.41;7398939;19;20388;-92
2023/12/22 07:14:13;;;;;;;2.43;1.50;;;;;;;4.48;100.00;94191.63;7399391;19;20372;-92
2023/12/22 07:16:42;;;;;;;4.03;1.63;;;;;;;4.15;100.00;94110.97;7401015;19;20467;-92
2023/12/22 07:19:13;;;;;;;0.80;0.80;;;;;;;4.38;100.00;94145.25;7401199;19;20389;-91
2023/12/22 07:21:41;;;;;;;2.43;0.90;;;;;;;5.09;100.00;94244.09;7398066;19;20917;-92
2023/12/22 07:24:13;;;;;;;1.10;1.00;;;;;;;4.47;100.00;94166.72;7399807;19;20388;-92
2023/12/22 07:26:44;;;;;;;2.40;1.27;;;;;;;3.97;100.00;94088.00;7399016;19;20380;-92
2023/12/22 07:29:12;;;;;;;1.50;1.10;;;;;;;4.25;100.00;94101.31;7398887;19;20385;-91
2023/12/22 07:31:40;;;;;;;4.13;1.37;;;;;;;3.97;100.00;94088.75;7398434;19;20393;-92
2023/12/22 07:34:07;;;;;;;1.47;0.77;;;;;;;4.18;100.00;94146.69;7397762;19;20384;-92
2023/12/22 07:36:36;;;;;;;1.17;1.07;;;;;;;4.23;100.00;94163.16;7399233;19;20385;-91
2023/12/22 07:39:15;;;;;;;1.20;1.10;;;;;;;3.35;100.00;94068.47;7399432;19;20376;-92
2023/12/22 07:41:44;;;;;;;4.00;1.97;;;;;;;3.46;100.00;94089.66;7398148;19;20405;-92
2023/12/22 07:44:12;;;;;;;2.80;1.20;;;;;;;4.36;100.00;94238.25;7398943;19;20392;-92
2023/12/22 07:46:41;;;;;;;3.93;1.00;;;;;;;3.93;100.00;94190.84;7399071;19;20373;-87
2023/12/22 07:49:10;;;;;;;0.80;0.80;;;;;;;3.64;100.00;94150.00;7397160;19;20409;-88
2023/12/22 07:51:38;;;;;;;1.97;1.40;;;;;;;3.71;100.00;94182.22;7396862;19;20415;-89
2023/12/22 07:54:08;;;;;;;1.87;1.10;;;;;;;4.46;100.00;94296.88;7398042;19;20754;-89
2023/12/22 07:56:35;;;;;;;1.40;1.03;;;;;;;3.64;100.00;94174.13;7397333;19;20365;-89
2023/12/22 07:59:03;;;;;;;1.57;1.20;;;;;;;3.63;100.00;94156.28;7397047;19;20905;-89
2023/12/22 08:01:49;;;;;;;1.77;1.20;;;;;;;3.36;100.00;94131.44;7396343;19;20484;-89
2023/12/22 08:04:17;;;;;;;1.70;1.60;;;;;;;3.80;100.00;94185.53;7396634;19;20392;-89
2023/12/22 08:06:44;;;;;;;3.73;1.60;;;;;;;3.80;100.00;94151.81;7396759;19;20669;-89
2023/12/22 08:09:12;;;;;;;1.67;1.20;;;;;;;4.24;100.00;94227.00;7397029;19;20365;-89
2023/12/22 08:11:39;;;;;;;1.63;0.97;;;;;;;4.88;100.00;94317.84;7397264;19;20456;-89
2023/12/22 08:14:07;;;;;;;1.07;0.97;;;;;;;4.72;100.00;94330.59;7396280;19;20904;-89
2023/12/22 08:16:34;;;;;;;3.23;1.73;;;;;;;4.62;100.00;94308.28;7396185;19;20831;-88
2023/12/22 08:19:02;;;;;;;3.60;1.27;;;;;;;3.83;100.00;94221.25;7396850;19;20365;-89
2023/12/22 08:21:34;;;;;;;1.40;1.30;;;;;;;4.30;100.00;94262.84;7395341;19;20787;-88
2023/12/22 08:24:12;;;;;;;2.03;1.30;;;;;;;4.62;100.00;94343.91;7396953;19;20372;-89
2023/12/22 08:26:50;;;;;;;1.17;1.07;;;;;;;3.99;100.00;94231.16;7397459;19;20380;-89
2023/12/22 08:29:19;;;;;;;3.77;1.70;;;;;;;4.23;100.00;94261.78;7396020;19;20389;-89
2023/12/22 08:31:47;;;;;;;2.50;1.47;;;;;;;4.25;100.00;94276.00;7395209;19;20447;-89
2023/12/22 08:34:15;;;;;;;4.83;1.60;;;;;;;4.41;100.00;94290.03;7397659;19;20468;-89
2023/12/22 08:36:42;;;;;;;2.80;1.27;;;;;;;3.98;100.00;94220.00;7395975;19;20369;-90
2023/12/22 08:39:12;;;;;;;1.93;1.23;;;;;;;4.51;100.00;94281.16;7396433;19;20402;-90
2023/12/22 08:41:41;;;;;;;2.80;1.80;;;;;;;4.76;100.00;94313.31;7394627;19;20420;-89
2023/12/22 08:44:09;;;;;;;2.73;1.43;;;;;;;4.73;100.00;94304.28;7397432;19;20391;-89
2023/12/22 08:46:37;;;;;;;2.43;1.80;;;;;;;4.41;100.00;94239.94;7402360;19;20695;-90
2023/12/22 08:49:05;;;;;;;1.30;1.10;;;;;;;5.46;100.00;94363.22;7402816;19;20381;-91
2023/12/22 08:51:42;;;;;;;3.40;1.27;;;;;;;4.90;100.00;94307.91;7403744;19;20676;-90
2023/12/22 08:54:10;;;;;;;3.80;1.20;;;;;;;4.90;100.00;94298.31;7402841;19;20373;-88
2023/12/22 08:56:38;;;;;;;1.30;1.20;;;;;;;5.58;100.00;94397.16;7403048;19;20384;-90
2023/12/22 08:59:05;;;;;;;6.10;1.30;;;;;;;4.41;100.00;94230.31;7403961;19;20682;-89
2023/12/22 09:01:32;;;;;;;5.30;1.20;;;;;;;4.95;100.00;94298.13;7401844;19;20413;-90
2023/12/22 09:04:01;;;;;;;1.87;1.00;;;;;;;5.28;100.00;94352.88;7403107;19;20376;-90
2023/12/22 09:06:29;;;;;;;3.60;2.10;;;;;;;4.95;100.00;94292.16;7402456;19;20381;-90
2023/12/22 09:08:56;;;;;;;3.37;1.93;;;;;;;4.83;100.00;94260.88;7402503;19;20452;-90
2023/12/22 09:11:25;;;;;;;1.60;1.30;;;;;;;5.52;100.00;94362.72;7404012;19;20376;-90
2023/12/22 09:13:53;;;;;;;1.20;0.90;;;;;;;5.19;100.00;94297.56;7402114;19;20401;-89
2023/12/22 09:16:22;;;;;;;4.40;1.77;;;;;;;5.75;100.00;94398.91;7402087;19;20885;-89
2023/12/22 09:18:53;;;;;;;1.57;1.30;;;;;;;5.86;100.00;94423.50;7401843;19;20393;-89
2023/12/22 09:21:20;;;;;;;5.00;1.53;;;;;;;5.52;100.00;94357.53;7401144;19;20487;-89
2023/12/22 09:23:49;;;;;;;5.70;1.80;;;;;;;4.96;100.00;94276.25;7400605;19;20440;-90
2023/12/22 09:26:17;;;;;;;1.43;1.33;;;;;;;5.44;100.00;94340.13;7401974;19;20397;-90
2023/12/22 09:28:45;;;;;;;1.83;1.10;;;;;;;5.02;100.00;94279.44;7401483;19;20389;-90
2023/12/22 09:31:13;;;;;;;2.83;1.40;;;;;;;5.67;100.00;94354.38;7401314;19;20453;-89
2023/12/22 09:33:43;;;;;;;1.90;1.20;;;;;;;5.86;100.00;94389.66;7401354;19;20401;-90
2023/12/22 09:36:11;;;;;;;3.63;1.47;;;;;;;5.91;100.00;94395.44;7400961;19;20392;-89
2023/12/22 09:38:39;;;;;;;2.23;1.00;;;;;;;4.99;100.00;94235.88;7402008;19;20361;-90
2023/12/22 09:41:10;;;;;;;5.57;1.53;;;;;;;5.11;100.00;94276.81;7400900;19;20375;-89
2023/12/22 09:43:40;;;;;;;3.83;1.50;;;;;;;4.79;100.00;94219.94;7399203;19;20373;-91
2023/12/22 09:46:09;;;;;;;1.60;1.00;;;;;;;5.52;100.00;94315.13;7400952;19;20397;-90
2023/12/22 09:48:39;;;;;;;3.30;1.30;;;;;;;5.86;100.00;94381.84;7401655;19;20412;-89
2023/12/22 09:51:08;;;;;;;3.87;1.33;;;;;;;5.52;100.00;94302.88;7400420;19;20894;-90
2023/12/22 09:53:37;;;;;;;2.10;1.17;;;;;;;5.77;100.00;94336.88;7400699;19;20396;-90
2023/12/22 09:56:05;;;;;;;2.60;1.70;;;;;;;5.45;100.00;94274.03;7400191;19;20381;-90
2023/12/22 09:58:35;;;;;;;2.03;1.17;;;;;;;5.81;100.00;94342.97;7401202;19;20369;-89
2023/12/22 10:01:07;;;;;;;3.87;1.33;;;;;;;6.09;100.00;94370.03;7401487;19;20377;-89
2023/12/22 10:03:37;;;;;;;3.73;1.27;;;;;;;6.33;100.00;94392.09;7421474;19;20396;-89
2023/12/22 10:06:05;;;;;;;4.80;1.23;;;;;;;5.84;100.00;94317.09;7427005;19;20368;-90
2023/12/22 10:08:34;;;;;;;2.77;2.50;;;;;;;6.07;100.00;94346.16;7428451;19;20365;-89
2023/12/22 10:11:02;;;;;;;2.70;1.20;;;;;;;5.83;100.00;94314.78;7430284;19;20393;-90
2023/12/22 10:13:31;;;;;;;2.90;1.70;;;;;;;5.61;100.00;94303.59;7431221;19;20420;-89
2023/12/22 10:16:00;;;;;;;4.93;1.83;;;;;;;5.71;100.00;94317.34;7431325;19;20380;-88
2023/12/22 10:18:28;;;;;;;5.23;1.33;;;;;;;5.80;100.00;94337.00;7408861;19;20373;-90
2023/12/22 10:20:56;;;;;;;3.00;1.40;;;;;;;5.08;100.00;94210.59;7402846;19;20373;-89
2023/12/22 10:23:24;;;;;;;2.87;1.60;;;;;;;5.80;100.00;94323.22;7400290;19;20416;-89
2023/12/22 10:25:51;;;;;;;5.83;1.40;;;;;;;6.34;100.00;94381.34;7400648;19;20376;-89
2023/12/22 10:28:24;;;;;;;2.00;1.10;;;;;;;5.78;100.00;94301.97;7409524;19;20389;-89
2023/12/22 10:30:53;;;;;;;2.90;1.63;;;;;;;5.79;100.00;94298.28;7399871;19;20395;-89
2023/12/22 10:33:20;;;;;;;2.60;1.20;;;;;;;5.80;100.00;94286.78;7399803;19;20400;-89
2023/12/22 10:35:50;;;;;;;2.97;1.30;;;;;;;6.09;100.00;94351.81;7398963;19;20413;-89
2023/12/22 10:38:19;;;;;;;2.33;1.33;;;;;;;5.85;100.00;94299.63;7399491;19;20460;-88
2023/12/22 10:40:47;;;;;;;1.57;1.47;;;;;;;6.29;100.00;94368.53;7399287;19;20377;-85
2023/12/22 10:43:15;;;;;;;12.70;7.70;;;;;;;5.95;100.00;94333.84;7396292;19;20477;-87
2023/12/22 10:45:42;;;;;;;2.20;1.23;;;;;;;5.58;100.00;94280.06;7398274;19;20373;-87
2023/12/22 10:48:10;;;;;;;2.03;1.70;;;;;;;5.35;100.00;94224.97;7400245;19;20459;-89
2023/12/22 10:50:40;;;;;;;3.00;1.50;;;;;;;6.52;100.00;94397.63;7399195;19;20396;-90
2023/12/22 10:53:11;;;;;;;25.60;10.87;;;;;;;5.42;100.00;94235.63;7397530;19;20850;-90
2023/12/22 10:55:50;;;;;;;2.57;1.83;;;;;;;5.82;100.00;94298.41;7398759;19;20380;-90
2023/12/22 10:58:18;;;;;;;3.93;1.33;;;;;;;5.03;100.00;94179.56;7398619;19;20353;-89
2023/12/22 11:00:46;;;;;;;3.30;1.20;;;;;;;5.15;100.00;94226.44;7398509;19;20392;-89
2023/12/22 11:03:20;;;;;;;1.57;0.97;;;;;;;5.43;100.00;94252.75;7396884;19;20385;-89
2023/12/22 11:05:48;;;;;;;1.57;1.10;;;;;;;6.15;100.00;94329.72;7398642;19;20413;-89
2023/12/22 11:08:19;;;;;;;7.90;1.20;;;;;;;5.81;100.00;94311.72;7396053;19;20389;-90
2023/12/22 11:10:56;;;;;;;5.13;1.40;;;;;;;6.06;100.00;94310.78;7398107;19;20396;-89
2023/12/22 11:13:24;;;;;;;4.20;1.70;;;;;;;5.73;100.00;94245.66;7398257;19;20409;-90
2023/12/22 11:15:53;;;;;;;2.60;1.37;;;;;;;6.06;100.00;94307.44;7398168;19;20383;-89
2023/12/22 11:18:21;;;;;;;3.57;2.00;;;;;;;5.96;100.00;94270.28;7398944;19;20385;-88
2023/12/22 11:20:50;;;;;;;3.60;1.77;;;;;;;5.54;100.00;94220.09;7398361;19;20602;-89
2023/12/22 11:23:20;;;;;;;3.03;1.07;;;;;;;5.85;100.00;94265.78;7396100;19;20436;-89
2023/12/22 11:25:51;;;;;;;7.00;1.90;;;;;;;5.54;100.00;94190.72;7398541;19;20409;-90
2023/12/22 11:28:21;;;;;;;2.73;1.77;;;;;;;5.30;100.00;94184.31;7397903;19;20373;-89
2023/12/22 11:30:52;;;;;;;2.93;1.63;;;;;;;5.54;100.00;94208.91;7397367;19;20897;-90
2023/12/22 11:33:25;;;;;;;3.10;1.93;;;;;;;5.64;100.00;94222.31;7397284;19;20873;-89
2023/12/22 11:35:56;;;;;;;2.30;1.50;;;;;;;5.64;100.00;94243.13;7398127;19;20396;-89
2023/12/22 11:38:23;;;;;;;2.30;1.67;;;;;;;5.38;100.00;94200.94;7397858;19;20381;-90
2023/12/22 11:40:53;;;;;;;4.80;1.83;;;;;;;5.52;100.00;94227.44;7397433;19;20387;-90
2023/12/22 11:43:21;;;;;;;4.13;2.27;;;;;;;5.34;100.00;94207.84;7397139;19;20369;-90